createdAt,value
2019-02-11T00:01:25.179Z,99067.48
2019-02-11T00:03:59.573Z,99073.36
2019-02-11T00:06:23.404Z,99078.93
2019-02-11T00:08:51.662Z,99081.67
2019-02-11T00:11:19.916Z,99093.31
2019-02-11T00:13:48.167Z,99100.66
2019-02-11T00:16:16.413Z,99102.70
2019-02-11T00:18:44.653Z,99112.23
2019-02-11T00:21:12.917Z,99124.52
2019-02-11T00:23:41.807Z,99124.52
2019-02-11T00:26:10.067Z,99126.20
2019-02-11T00:28:38.308Z,99136.77
2019-02-11T00:31:06.564Z,99147.87
2019-02-11T00:33:34.820Z,99163.69
2019-02-11T00:36:03.070Z,99171.06
2019-02-11T00:38:31.320Z,99178.16
2019-02-11T00:40:59.576Z,99175.77
2019-02-11T00:43:27.826Z,99183.38
2019-02-11T00:45:56.153Z,99185.87
2019-02-11T00:48:24.394Z,99188.54
2019-02-11T00:50:52.648Z,99197.89
2019-02-11T00:53:20.906Z,99206.25
2019-02-11T00:55:49.158Z,99205.41
2019-02-11T00:58:17.393Z,99217.50
2019-02-11T01:00:45.653Z,99220.01
2019-02-11T01:03:13.897Z,99219.94
2019-02-11T01:05:42.152Z,99228.67
2019-02-11T01:08:10.404Z,99229.81
2019-02-11T01:10:38.648Z,99244.61
2019-02-11T01:13:06.917Z,99249.55
2019-02-11T01:15:35.158Z,99254.66
2019-02-11T01:18:03.409Z,99261.11
2019-02-11T01:20:31.658Z,99272.91
2019-02-11T01:22:59.986Z,99272.98
2019-02-11T01:25:28.232Z,99272.83
2019-02-11T01:27:56.481Z,99285.45
2019-02-11T01:30:24.740Z,99284.69
2019-02-11T01:32:52.994Z,99289.94
2019-02-11T01:35:21.550Z,99296.78
2019-02-11T01:37:49.788Z,99303.62
2019-02-11T01:40:18.032Z,99313.21
2019-02-11T01:42:46.288Z,99313.21
2019-02-11T01:45:14.533Z,99316.41
2019-02-11T01:47:42.787Z,99322.34
2019-02-11T01:50:12.460Z,99319.42
2019-02-11T01:52:40.709Z,99328.55
2019-02-11T01:55:08.941Z,99328.55
2019-02-11T01:57:37.188Z,99344.30
2019-02-11T02:00:08.639Z,99339.89
2019-02-11T02:02:36.885Z,99344.98
2019-02-11T02:05:06.871Z,99350.43
2019-02-11T02:07:35.116Z,99352.28
2019-02-11T02:10:04.625Z,99360.32
2019-02-11T02:12:32.860Z,99361.01
2019-02-11T02:15:01.104Z,99360.02
2019-02-11T02:17:29.340Z,99370.14
2019-02-11T02:19:57.588Z,99375.09
2019-02-11T02:22:25.824Z,99375.54
2019-02-11T02:24:54.072Z,99378.89
2019-02-11T02:27:22.318Z,99380.94
2019-02-11T02:29:50.568Z,99382.08
2019-02-11T02:32:18.819Z,99390.08
2019-02-11T02:34:47.086Z,99393.20
2019-02-11T02:37:15.342Z,99401.34
2019-02-11T02:39:43.574Z,99410.67
2019-02-11T02:42:11.824Z,99408.84
2019-02-11T02:44:40.065Z,99413.64
2019-02-11T02:47:08.317Z,99418.52
2019-02-11T02:49:36.553Z,99418.59
2019-02-11T02:52:04.813Z,99417.98
2019-02-11T02:54:33.060Z,99427.34
2019-02-11T02:57:01.308Z,99431.15
2019-02-11T02:59:29.556Z,99428.41
2019-02-11T03:01:57.805Z,99437.63
2019-02-11T03:04:26.043Z,99436.48
2019-02-11T03:06:54.305Z,99440.75
2019-02-11T03:09:22.552Z,99452.02
2019-02-11T03:11:50.804Z,99456.43
2019-02-11T03:14:19.069Z,99459.78
2019-02-11T03:16:47.303Z,99459.30
2019-02-11T03:19:15.543Z,99468.97
2019-02-11T03:21:43.814Z,99468.20
2019-02-11T03:24:12.066Z,99466.38
2019-02-11T03:26:40.318Z,99472.77
2019-02-11T03:29:08.561Z,99465.01
2019-02-11T03:31:36.822Z,99484.73
2019-02-11T03:34:05.063Z,99483.97
2019-02-11T03:36:33.316Z,99481.77
2019-02-11T03:39:01.580Z,99487.70
2019-02-11T03:41:29.846Z,99498.81
2019-02-11T03:43:58.089Z,99507.34
2019-02-11T03:46:26.327Z,99510.25
2019-02-11T03:48:54.584Z,99520.60
2019-02-11T03:51:22.849Z,99518.92
2019-02-11T03:53:51.096Z,99523.65
2019-02-11T03:56:19.347Z,99529.73
2019-02-11T03:58:47.592Z,99530.03
2019-02-11T04:01:17.377Z,99527.98
2019-02-11T04:03:45.627Z,99547.70
2019-02-11T04:06:13.890Z,99549.83
2019-02-11T04:08:42.139Z,99559.28
2019-02-11T04:11:10.408Z,99559.73
2019-02-11T04:13:38.825Z,99553.50
2019-02-11T04:16:07.089Z,99566.44
2019-02-11T04:18:35.327Z,99573.50
2019-02-11T04:21:03.584Z,99585.77
2019-02-11T04:23:31.839Z,99584.02
2019-02-11T04:26:00.071Z,99575.34
2019-02-11T04:28:28.324Z,99589.52
2019-02-11T04:30:56.582Z,99597.20
2019-02-11T04:33:24.844Z,99605.36
2019-02-11T04:35:53.091Z,99611.16
2019-02-11T04:38:21.341Z,99614.42
2019-02-11T04:40:49.591Z,99606.49
2019-02-11T04:43:17.830Z,99610.76
2019-02-11T04:45:46.099Z,99619.22
2019-02-11T04:48:14.336Z,99626.61
2019-02-11T04:50:42.656Z,99629.89
2019-02-11T04:53:10.890Z,99630.88
2019-02-11T04:55:39.143Z,99635.07
2019-02-11T04:58:07.402Z,99655.33
2019-02-11T05:00:35.658Z,99660.67
2019-02-11T05:03:03.899Z,99665.23
2019-02-11T05:05:32.171Z,99676.13
2019-02-11T05:08:00.421Z,99676.82
2019-02-11T05:10:28.664Z,99684.06
2019-02-11T05:12:56.932Z,99684.06
2019-02-11T05:15:25.163Z,99695.33
2019-02-11T05:17:53.431Z,99701.88
2019-02-11T05:20:21.673Z,99704.30
2019-02-11T05:22:49.936Z,99693.80
2019-02-11T05:25:18.204Z,99713.98
2019-02-11T05:27:46.454Z,99709.55
2019-02-11T05:30:14.704Z,99711.16
2019-02-11T05:32:42.959Z,99717.46
2019-02-11T05:35:14.208Z,99720.08
2019-02-11T05:37:44.142Z,99722.42
2019-02-11T05:40:12.737Z,99723.52
2019-02-11T05:42:40.977Z,99719.56
2019-02-11T05:45:09.394Z,99737.83
2019-02-11T05:47:37.659Z,99726.31
2019-02-11T05:50:11.252Z,99732.16
2019-02-11T05:52:39.496Z,99734.22
2019-02-11T05:55:08.208Z,99746.92
2019-02-11T05:57:36.460Z,99749.83
2019-02-11T06:00:08.015Z,99747.24
2019-02-11T06:02:36.275Z,99744.97
2019-02-11T06:05:06.346Z,99762.95
2019-02-11T06:07:34.599Z,99765.82
2019-02-11T06:10:03.032Z,99775.20
2019-02-11T06:12:31.281Z,99780.30
2019-02-11T06:15:04.191Z,99789.91
2019-02-11T06:17:29.477Z,99812.38
2019-02-11T06:19:57.729Z,99802.39
2019-02-11T06:22:25.985Z,99812.76
2019-02-11T06:24:54.285Z,99819.82
2019-02-11T06:27:22.485Z,99820.07
2019-02-11T06:29:50.730Z,99822.66
2019-02-11T06:32:18.977Z,99826.48
2019-02-11T06:34:47.217Z,99829.06
2019-02-11T06:37:17.099Z,99837.86
2019-02-11T06:39:45.344Z,99853.22
2019-02-11T06:42:13.597Z,99854.19
2019-02-11T06:44:41.907Z,99865.46
2019-02-11T06:47:10.177Z,99870.31
2019-02-11T06:49:38.433Z,99876.66
2019-02-11T06:52:06.753Z,99882.16
2019-02-11T06:54:34.997Z,99892.20
2019-02-11T06:57:04.297Z,99894.70
2019-02-11T06:59:32.601Z,99900.72
2019-02-11T07:02:00.850Z,99907.94
2019-02-11T07:04:36.139Z,99913.24
2019-02-11T07:07:04.389Z,99929.88
2019-02-11T07:09:32.645Z,99923.92
2019-02-11T07:12:00.921Z,99936.58
2019-02-11T07:14:29.158Z,99953.93
2019-02-11T07:16:57.462Z,99942.22
2019-02-11T07:19:25.706Z,99956.45
2019-02-11T07:21:53.938Z,99957.36
2019-02-11T07:24:22.198Z,99970.31
2019-02-11T07:26:50.485Z,99974.32
2019-02-11T07:29:18.697Z,99980.41
2019-02-11T07:31:46.952Z,99986.36
2019-02-11T07:34:15.196Z,99999.70
2019-02-11T07:36:43.484Z,99997.62
2019-02-11T07:39:11.989Z,100002.29
2019-02-11T07:49:57.073Z,100015.17
2019-02-11T07:52:26.809Z,100021.43
2019-02-11T07:54:55.310Z,100022.33
2019-02-11T07:58:03.610Z,100026.67
2019-02-11T08:00:31.850Z,100035.22
2019-02-11T08:03:00.104Z,100033.80
2019-02-11T08:05:28.357Z,100050.63
2019-02-11T08:07:56.620Z,100051.23
2019-02-11T08:10:24.878Z,100053.16
2019-02-11T08:12:53.126Z,100059.31
2019-02-11T08:15:21.390Z,100071.48
2019-02-11T08:17:49.628Z,100076.15
2019-02-11T08:20:17.872Z,100081.14
2019-02-11T08:22:46.116Z,100065.59
2019-02-11T08:25:14.360Z,100074.65
2019-02-11T08:27:42.602Z,100072.22
2019-02-11T08:30:44.590Z,100077.11
2019-02-11T08:33:12.859Z,100076.33
2019-02-11T08:35:41.115Z,100077.90
2019-02-11T08:38:09.389Z,100102.77
2019-02-11T08:40:37.635Z,100088.08
2019-02-11T08:43:05.926Z,100097.92
2019-02-11T08:45:34.201Z,100102.59
2019-02-11T08:48:02.463Z,100116.82
2019-02-11T08:50:30.731Z,100126.48
2019-02-11T08:52:59.002Z,100122.14
2019-02-11T08:55:27.279Z,100122.47
2019-02-11T08:58:35.527Z,100131.48
2019-02-11T09:01:03.787Z,100149.35
2019-02-11T09:03:32.132Z,100156.22
2019-02-11T09:06:00.383Z,100161.22
2019-02-11T09:08:28.628Z,100167.41
2019-02-11T09:10:56.901Z,100182.91
2019-02-11T09:13:25.180Z,100185.52
2019-02-11T09:15:55.384Z,100187.34
2019-02-11T09:18:23.407Z,100197.44
2019-02-11T09:20:51.699Z,100194.13
2019-02-11T09:23:19.950Z,100208.64
2019-02-11T09:25:48.199Z,100210.94
2019-02-11T09:28:16.462Z,100224.94
2019-02-11T09:30:44.734Z,100232.77
2019-02-11T09:33:53.010Z,100246.31
2019-02-11T09:36:21.304Z,100257.28
2019-02-11T09:38:49.548Z,100259.34
2019-02-11T09:41:17.818Z,100268.26
2019-02-11T09:43:46.064Z,100276.42
2019-02-11T09:46:14.308Z,100280.59
2019-02-11T09:48:42.576Z,100287.13
2019-02-11T09:51:11.484Z,100292.77
2019-02-11T09:53:40.602Z,100291.86
2019-02-11T09:56:08.854Z,100310.28
2019-02-11T09:58:38.172Z,100326.23
2019-02-11T10:01:47.209Z,100327.98
2019-02-11T10:04:15.467Z,100327.02
2019-02-11T10:06:43.760Z,100334.74
2019-02-11T10:09:31.331Z,100358.98
2019-02-11T10:11:59.580Z,100358.98
2019-02-11T10:14:27.835Z,100350.79
2019-02-11T10:16:56.086Z,100362.07
2019-02-11T10:19:24.342Z,100364.42
2019-02-11T10:21:52.606Z,100370.36
2019-02-11T10:24:20.844Z,100383.27
2019-02-11T10:26:49.102Z,100400.52
2019-02-11T10:29:17.362Z,100404.47
2019-02-11T10:31:45.655Z,100411.41
2019-02-11T10:34:13.936Z,100425.62
2019-02-11T10:36:42.188Z,100427.59
2019-02-11T10:39:10.455Z,100426.36
2019-02-11T10:41:38.715Z,100435.31
2019-02-11T10:44:06.973Z,100440.81
2019-02-11T10:46:35.224Z,100439.89
2019-02-11T10:49:03.546Z,100443.09
2019-02-11T10:51:31.828Z,100465.23
2019-02-11T10:54:00.096Z,100440.91
2019-02-11T10:56:28.390Z,100452.88
2019-02-11T10:58:56.677Z,100443.66
2019-02-11T11:01:24.942Z,100452.41
2019-02-11T11:03:53.198Z,100448.91
2019-02-11T11:06:21.481Z,100458.53
2019-02-11T11:08:49.760Z,100463.41
2019-02-11T11:11:18.031Z,100473.80
2019-02-11T11:13:46.297Z,100486.52
2019-02-11T11:16:14.570Z,100475.80
2019-02-11T11:18:42.859Z,100480.14
2019-02-11T11:21:51.152Z,100497.03
2019-02-11T11:24:19.414Z,100512.22
2019-02-11T11:26:47.711Z,100525.47
2019-02-11T11:29:15.979Z,100515.78
2019-02-11T11:31:44.292Z,100524.63
2019-02-11T11:34:12.569Z,100533.78
2019-02-11T11:36:40.838Z,100551.92
2019-02-11T11:41:48.116Z,100547.00
2019-02-11T11:44:16.428Z,100558.16
2019-02-11T11:46:47.160Z,100562.50
2019-02-11T11:49:14.697Z,100570.75
2019-02-11T11:51:42.972Z,100577.09
2019-02-11T11:54:11.227Z,100587.41
2019-02-11T11:56:39.571Z,100589.63
2019-02-11T11:59:07.843Z,100607.45
2019-02-11T12:01:36.101Z,100598.64
2019-02-11T12:04:06.700Z,100604.69
2019-02-11T12:06:34.428Z,100624.89
2019-02-11T12:11:52.225Z,100622.76
2019-02-11T12:14:20.477Z,100618.58
2019-02-11T12:16:56.768Z,100631.16
2019-02-11T12:19:18.768Z,100640.99
2019-02-11T12:22:06.420Z,100649.01
2019-02-11T12:24:34.686Z,100649.68
2019-02-11T12:27:02.962Z,100662.58
2019-02-11T12:29:31.303Z,100668.67
2019-02-11T12:31:59.547Z,100677.20
2019-02-11T12:34:27.817Z,100671.09
2019-02-11T12:36:56.085Z,100681.16
2019-02-11T12:39:24.329Z,100684.25
2019-02-11T12:41:52.584Z,100699.23
2019-02-11T12:44:20.835Z,100708.77
2019-02-11T12:46:49.099Z,100727.57
2019-02-11T12:49:17.387Z,100721.25
2019-02-11T12:51:45.652Z,100718.42
2019-02-11T12:54:13.919Z,100730.52
2019-02-11T12:56:42.162Z,100738.44
2019-02-11T12:59:10.428Z,100725.51
2019-02-11T13:01:38.695Z,100713.06
2019-02-11T13:04:06.942Z,100721.37
2019-02-11T13:06:35.176Z,100747.62
2019-02-11T13:12:04.999Z,100754.35
2019-02-11T13:14:33.270Z,100762.50
2019-02-11T13:17:14.205Z,100762.00
2019-02-11T13:19:31.552Z,100772.91
2019-02-11T13:21:59.817Z,100784.50
2019-02-11T13:24:28.094Z,100797.67
2019-02-11T13:26:56.346Z,100801.20
2019-02-11T13:29:24.641Z,100814.42
2019-02-11T13:31:52.954Z,100811.71
2019-02-11T13:34:21.258Z,100814.38
2019-02-11T13:36:49.519Z,100822.11
2019-02-11T13:39:17.785Z,100818.71
2019-02-11T13:42:26.072Z,100833.34
2019-02-11T13:44:54.321Z,100852.56
2019-02-11T13:47:22.615Z,100851.86
2019-02-11T13:49:50.882Z,100861.88
2019-02-11T13:52:59.183Z,100865.78
2019-02-11T13:55:30.673Z,100877.63
2019-02-11T13:58:37.479Z,100881.83
2019-02-11T14:01:39.047Z,100882.48
2019-02-11T14:04:07.296Z,100886.48
2019-02-11T14:06:35.588Z,100904.61
2019-02-11T14:12:24.664Z,100927.98
2019-02-11T14:14:52.927Z,100927.98
2019-02-11T14:17:21.214Z,100949.17
2019-02-11T14:19:49.522Z,100934.73
2019-02-11T14:22:17.746Z,100926.05
2019-02-11T14:24:46.025Z,100934.45
2019-02-11T14:27:14.359Z,100945.98
2019-02-11T14:29:42.612Z,100962.97
2019-02-11T14:32:10.867Z,100960.88
2019-02-11T14:34:39.119Z,100970.70
2019-02-11T14:37:07.376Z,100964.45
2019-02-11T14:39:35.646Z,100979.59
2019-02-11T14:42:03.918Z,100978.79
2019-02-11T14:44:32.173Z,100983.58
2019-02-11T14:47:00.433Z,100996.52
2019-02-11T14:49:28.717Z,100998.41
2019-02-11T14:51:57.005Z,101006.80
2019-02-11T14:54:25.244Z,101011.98
2019-02-11T14:56:53.491Z,101016.60
2019-02-11T14:59:21.744Z,101014.05
2019-02-11T15:01:50.019Z,101031.78
2019-02-11T15:04:18.380Z,101033.48
2019-02-11T15:06:46.668Z,101039.17
2019-02-11T15:09:14.943Z,101035.31
2019-02-11T15:11:43.202Z,101034.56
2019-02-11T15:14:11.456Z,101040.73
2019-02-11T15:16:39.730Z,101055.33
2019-02-11T15:19:08.024Z,101052.55
2019-02-11T15:21:36.287Z,101075.59
2019-02-11T15:24:04.541Z,101085.13
2019-02-11T15:26:32.830Z,101085.59
2019-02-11T15:29:01.061Z,101092.08
2019-02-11T15:31:29.344Z,101100.84
2019-02-11T15:33:57.594Z,101107.34
2019-02-11T15:36:25.842Z,101113.38
2019-02-11T15:38:54.106Z,101122.14
2019-02-11T15:41:22.347Z,101128.42
2019-02-11T15:43:50.616Z,101134.22
2019-02-11T15:46:18.874Z,101140.69
2019-02-11T15:48:47.131Z,101137.84
2019-02-11T15:51:15.423Z,101132.74
2019-02-11T15:53:43.649Z,101151.01
2019-02-11T15:56:11.931Z,101160.63
2019-02-11T15:58:40.237Z,101173.34
2019-02-11T16:01:08.555Z,101160.56
2019-02-11T16:03:36.827Z,101162.11
2019-02-11T16:06:10.171Z,101181.17
2019-02-11T16:08:35.374Z,101197.38
2019-02-11T16:11:03.639Z,101191.14
2019-02-11T16:13:31.897Z,101207.98
2019-02-11T16:16:00.156Z,101219.27
2019-02-11T16:18:28.421Z,101233.91
2019-02-11T16:20:56.672Z,101243.41
2019-02-11T16:23:24.946Z,101245.42
2019-02-11T16:25:53.191Z,101260.97
2019-02-11T16:28:21.456Z,101273.71
2019-02-11T16:30:49.740Z,101279.36
2019-02-11T16:33:18.016Z,101299.80
2019-02-11T16:35:46.265Z,101309.80
2019-02-11T16:38:14.560Z,101319.80
2019-02-11T16:40:42.796Z,101325.58
2019-02-11T16:43:11.055Z,101345.00
2019-02-11T16:45:39.341Z,101356.69
2019-02-11T16:50:46.513Z,101355.19
2019-02-11T16:53:14.778Z,101374.25
2019-02-11T16:55:43.026Z,101372.22
2019-02-11T16:58:11.283Z,101369.22
2019-02-11T17:00:39.559Z,101377.52
2019-02-11T17:03:07.825Z,101397.84
2019-02-11T17:05:36.073Z,101410.03
2019-02-11T17:08:04.354Z,101413.45
2019-02-11T17:10:32.623Z,101414.35
2019-02-11T17:13:00.863Z,101422.96
2019-02-11T17:15:29.177Z,101429.45
2019-02-11T17:17:57.456Z,101430.43
2019-02-11T17:20:25.667Z,101434.30
2019-02-11T17:22:53.933Z,101455.95
2019-02-11T17:25:22.324Z,101463.75
2019-02-11T17:27:50.576Z,101466.76
2019-02-11T17:30:39.128Z,101480.59
2019-02-11T17:33:07.375Z,101481.00
2019-02-11T17:35:35.657Z,101493.52
2019-02-11T17:38:03.901Z,101489.64
2019-02-11T17:40:32.163Z,101482.75
2019-02-11T17:43:00.412Z,101484.45
2019-02-11T17:46:08.703Z,101493.00
2019-02-11T17:48:36.975Z,101491.30
2019-02-11T17:51:05.254Z,101497.00
2019-02-11T17:53:33.593Z,101496.58
2019-02-11T17:56:01.836Z,101519.41
2019-02-11T17:58:30.123Z,101527.22
2019-02-11T18:03:37.286Z,101527.12
2019-02-11T18:06:05.627Z,101525.39
2019-02-11T18:08:33.830Z,101527.70
2019-02-11T18:11:02.078Z,101535.39
2019-02-11T18:13:30.337Z,101534.19
2019-02-11T18:15:58.585Z,101543.70
2019-02-11T18:18:26.825Z,101557.92
2019-02-11T18:20:55.081Z,101555.41
2019-02-11T18:23:42.668Z,101564.02
2019-02-11T18:26:10.914Z,101560.56
2019-02-11T18:28:58.531Z,101567.80
2019-02-11T18:31:26.804Z,101567.80
2019-02-11T18:33:55.093Z,101588.52
2019-02-11T18:36:23.327Z,101595.42
2019-02-11T18:38:51.607Z,101588.11
2019-02-11T18:41:19.863Z,101594.17
2019-02-11T18:43:48.111Z,101596.72
2019-02-11T18:46:16.397Z,101603.20
2019-02-11T18:48:44.655Z,101616.68
2019-02-11T18:51:12.912Z,101614.55
2019-02-11T18:53:41.278Z,101617.16
2019-02-11T18:56:09.529Z,101626.61
2019-02-11T18:58:37.786Z,101626.19
2019-02-11T19:01:06.044Z,101636.91
2019-02-11T19:06:53.280Z,101646.60
2019-02-11T19:09:21.543Z,101646.92
2019-02-11T19:11:49.820Z,101649.95
2019-02-11T19:14:20.387Z,101650.36
2019-02-11T19:16:48.758Z,101648.27
2019-02-11T19:21:55.951Z,101659.11
2019-02-11T19:24:24.216Z,101655.24
2019-02-11T19:26:52.481Z,101660.48
2019-02-11T19:29:22.935Z,101664.77
2019-02-11T19:32:31.236Z,101669.50
2019-02-11T19:35:33.521Z,101688.48
2019-02-11T19:38:01.782Z,101680.75
2019-02-11T19:40:30.081Z,101686.82
2019-02-11T19:45:45.968Z,101673.98
2019-02-11T19:48:14.236Z,101684.77
2019-02-11T19:50:42.493Z,101696.41
2019-02-11T19:53:11.081Z,101695.53
2019-02-11T19:55:40.194Z,101699.45
2019-02-11T19:58:08.694Z,101697.75
2019-02-11T20:00:36.955Z,101697.38
2019-02-11T20:03:05.206Z,101702.98
2019-02-11T20:08:54.785Z,101699.09
2019-02-11T20:11:23.329Z,101690.13
2019-02-11T20:13:51.559Z,101689.77
2019-02-11T20:16:19.828Z,101686.79
2019-02-11T20:18:48.846Z,101691.49
2019-02-11T20:21:17.342Z,101691.51
2019-02-11T20:23:45.605Z,101699.27
2019-02-11T20:26:13.859Z,101705.73
2019-02-11T20:29:22.210Z,101719.97
2019-02-11T20:31:50.458Z,101719.97
2019-02-11T20:34:18.710Z,101717.03
2019-02-11T20:36:46.990Z,101713.16
2019-02-11T20:39:15.295Z,101725.58
2019-02-11T20:41:43.818Z,101737.19
2019-02-11T20:44:12.083Z,101743.66
2019-02-11T20:46:40.353Z,101739.41
2019-02-11T20:49:10.323Z,101740.64
2019-02-11T20:52:18.433Z,101748.44
2019-02-11T20:54:46.929Z,101754.42
2019-02-11T20:57:16.822Z,101756.63
2019-02-11T20:59:45.086Z,101763.07
2019-02-11T21:02:13.377Z,101771.69
2019-02-11T21:04:41.632Z,101776.42
2019-02-11T21:07:09.873Z,101772.98
2019-02-11T21:09:38.130Z,101773.42
2019-02-11T21:12:06.393Z,101776.00
2019-02-11T21:17:21.953Z,101778.58
2019-02-11T21:19:50.199Z,101789.33
2019-02-11T21:22:18.474Z,101787.17
2019-02-11T21:24:46.944Z,101791.49
2019-02-11T21:27:16.776Z,101792.80
2019-02-11T21:29:45.015Z,101802.27
2019-02-11T21:32:13.262Z,101803.13
2019-02-11T21:34:41.514Z,101810.44
2019-02-11T21:37:09.782Z,101806.14
2019-02-11T21:39:38.030Z,101812.17
2019-02-11T21:42:06.280Z,101816.89
2019-02-11T21:44:34.539Z,101825.06
2019-02-11T21:47:02.788Z,101820.75
2019-02-11T21:49:31.048Z,101820.75
2019-02-11T21:51:59.314Z,101819.03
2019-02-11T21:54:27.544Z,101816.89
2019-02-11T21:56:55.804Z,101820.33
2019-02-11T21:59:24.076Z,101825.47
2019-02-11T22:01:52.305Z,101833.22
2019-02-11T22:04:20.555Z,101836.23
2019-02-11T22:06:48.812Z,101840.55
2019-02-11T22:09:17.085Z,101846.58
2019-02-11T22:11:45.324Z,101843.99
2019-02-11T22:14:53.617Z,101846.15
2019-02-11T22:17:21.840Z,101853.89
2019-02-11T22:19:50.090Z,101856.89
2019-02-11T22:22:18.344Z,101855.60
2019-02-11T22:24:46.601Z,101849.16
2019-02-11T22:27:14.842Z,101856.48
2019-02-11T22:29:43.108Z,101852.17
2019-02-11T22:32:11.341Z,101871.11
2019-02-11T22:34:39.595Z,101877.13
2019-02-11T22:37:07.846Z,101882.72
2019-02-11T22:39:36.095Z,101883.58
2019-02-11T22:42:04.342Z,101896.92
2019-02-11T22:44:32.588Z,101900.83
2019-02-11T22:47:00.843Z,101909.01
2019-02-11T22:49:29.090Z,101895.63
2019-02-11T22:51:57.338Z,101892.19
2019-02-11T22:54:25.587Z,101892.19
2019-02-11T22:56:53.827Z,101893.47
2019-02-11T22:59:22.090Z,101878.83
2019-02-11T23:01:50.333Z,101894.32
2019-02-11T23:04:18.574Z,101895.61
2019-02-11T23:06:46.849Z,101891.70
2019-02-11T23:09:15.086Z,101893.89
2019-02-11T23:11:43.337Z,101899.06
2019-02-11T23:14:12.387Z,101902.08
2019-02-11T23:16:40.634Z,101904.66
2019-02-11T23:19:08.882Z,101900.78
2019-02-11T23:21:37.143Z,101907.67
2019-02-11T23:24:05.386Z,101918.44
2019-02-11T23:26:33.644Z,101926.17
2019-02-11T23:29:01.899Z,101923.59
2019-02-11T23:31:30.145Z,101916.23
2019-02-11T23:33:58.397Z,101919.23
2019-02-11T23:36:26.660Z,101926.16
2019-02-11T23:38:54.911Z,101929.99
2019-02-11T23:41:23.147Z,101929.13
2019-02-11T23:43:51.392Z,101931.28
2019-02-11T23:46:19.631Z,101934.73
2019-02-11T23:48:47.873Z,101937.30
2019-02-11T23:51:16.114Z,101932.14
2019-02-11T23:53:44.388Z,101939.02
2019-02-11T23:56:12.624Z,101932.98
2019-02-11T23:58:40.863Z,101936.44
